createdAt,value
2022-08-03T00:00:27.070Z,22.18
2022-08-03T00:02:54.104Z,22.07
2022-08-03T00:05:20.921Z,21.94
2022-08-03T00:07:48.525Z,21.95
2022-08-03T00:10:16.381Z,21.92
2022-08-03T00:12:42.994Z,21.93
2022-08-03T00:15:15.097Z,21.88
2022-08-03T00:17:52.447Z,21.77
2022-08-03T00:20:21.393Z,21.77
2022-08-03T00:22:48.286Z,21.74
2022-08-03T00:25:14.944Z,21.71
2022-08-03T00:27:41.574Z,21.64
2022-08-03T00:30:08.481Z,21.74
2022-08-03T00:32:35.056Z,21.73
2022-08-03T00:35:04.372Z,21.66
2022-08-03T00:37:41.737Z,21.64
2022-08-03T00:40:13.618Z,21.66
2022-08-03T00:42:50.828Z,21.65
2022-08-03T00:45:18.636Z,21.65
2022-08-03T00:47:45.734Z,21.64
2022-08-03T00:50:12.965Z,21.66
2022-08-03T00:52:40.039Z,21.64
2022-08-03T00:55:06.963Z,21.66
2022-08-03T00:57:33.918Z,21.65
2022-08-03T01:00:00.922Z,21.65
2022-08-03T01:02:28.794Z,21.69
2022-08-03T01:04:56.332Z,21.70
2022-08-03T01:07:46.373Z,21.75
2022-08-03T01:10:22.692Z,21.76
2022-08-03T01:14:04.053Z,21.89
2022-08-03T01:16:35.676Z,21.92
2022-08-03T01:19:24.633Z,22.08
2022-08-03T01:22:10.946Z,22.15
2022-08-03T01:24:59.266Z,22.17
2022-08-03T01:27:43.440Z,22.26
2022-08-03T01:30:12.560Z,22.31
2022-08-03T01:33:01.673Z,22.46
2022-08-03T01:35:50.759Z,22.50
2022-08-03T01:38:32.135Z,22.40
2022-08-03T01:41:08.917Z,22.38
2022-08-03T01:44:26.680Z,22.44
2022-08-03T01:46:25.796Z,22.47
2022-08-03T01:48:54.931Z,22.53
2022-08-03T01:51:22.663Z,22.48
2022-08-03T01:53:52.240Z,22.39
2022-08-03T01:56:22.354Z,22.39
2022-08-03T01:58:50.799Z,22.36
2022-08-03T02:01:19.091Z,22.34
2022-08-03T02:04:00.119Z,22.30
2022-08-03T02:07:02.798Z,22.22
2022-08-03T02:09:20.067Z,22.13
2022-08-03T02:11:47.642Z,22.12
2022-08-03T02:14:15.949Z,22.09
2022-08-03T02:16:44.705Z,22.05
2022-08-03T02:19:11.823Z,21.99
2022-08-03T02:21:57.042Z,21.92
2022-08-03T02:24:25.615Z,21.92
2022-08-03T02:26:55.800Z,21.91
2022-08-03T02:29:40.050Z,21.94
2022-08-03T02:32:12.671Z,21.95
2022-08-03T02:34:40.147Z,21.97
2022-08-03T02:37:08.642Z,21.69
2022-08-03T02:39:36.787Z,21.76
2022-08-03T02:42:05.798Z,21.82
2022-08-03T02:44:34.182Z,21.62
2022-08-03T02:47:08.059Z,21.81
2022-08-03T02:49:50.724Z,21.79
2022-08-03T02:52:20.726Z,21.78
2022-08-03T02:54:51.259Z,21.77
2022-08-03T02:57:20.130Z,21.81
2022-08-03T02:59:47.750Z,21.88
2022-08-03T03:02:16.433Z,21.86
2022-08-03T03:05:51.108Z,21.93
2022-08-03T03:07:35.330Z,22.01
2022-08-03T03:10:19.770Z,22.02
2022-08-03T03:12:47.185Z,22.06
2022-08-03T03:15:13.828Z,22.12
2022-08-03T03:17:43.230Z,22.17
2022-08-03T03:20:10.695Z,22.20
2022-08-03T03:22:38.639Z,22.22
2022-08-03T03:25:08.223Z,22.27
2022-08-03T03:27:35.320Z,22.25
2022-08-03T03:30:03.260Z,22.19
2022-08-03T03:32:30.513Z,22.17
2022-08-03T03:34:59.261Z,22.23
2022-08-03T03:37:28.876Z,22.23
2022-08-03T03:42:38.320Z,22.26
2022-08-03T03:45:06.807Z,22.24
2022-08-03T03:47:36.899Z,22.26
2022-08-03T03:50:05.637Z,22.23
2022-08-03T03:52:33.035Z,22.36
2022-08-03T03:55:01.195Z,22.31
2022-08-03T03:57:28.614Z,22.37
2022-08-03T03:59:55.186Z,22.33
2022-08-03T04:02:21.852Z,22.40
2022-08-03T04:05:06.920Z,22.43
2022-08-03T04:08:04.874Z,22.47
2022-08-03T04:10:53.705Z,22.35
2022-08-03T04:13:21.824Z,22.35
2022-08-03T04:15:50.632Z,22.30
2022-08-03T04:18:19.131Z,22.21
2022-08-03T04:20:48.891Z,22.24
2022-08-03T04:23:19.757Z,22.28
2022-08-03T04:25:48.926Z,22.32
2022-08-03T04:28:30.686Z,22.25
2022-08-03T04:31:00.194Z,22.28
2022-08-03T04:33:29.457Z,22.40
2022-08-03T04:36:01.887Z,22.27
2022-08-03T04:38:32.828Z,22.46
2022-08-03T04:41:01.127Z,22.46
2022-08-03T04:43:29.422Z,22.42
2022-08-03T04:45:58.012Z,22.50
2022-08-03T04:48:24.857Z,22.60
2022-08-03T04:50:52.059Z,22.65
2022-08-03T04:53:19.538Z,22.76
2022-08-03T04:55:46.421Z,22.80
2022-08-03T04:58:13.038Z,22.90
2022-08-03T05:00:39.689Z,23.03
2022-08-03T05:03:20.578Z,23.12
2022-08-03T05:05:52.519Z,23.17
2022-08-03T05:08:20.291Z,23.27
2022-08-03T05:10:47.676Z,23.42
2022-08-03T05:13:14.614Z,23.58
2022-08-03T05:15:44.750Z,23.68
2022-08-03T05:18:14.181Z,23.74
2022-08-03T05:20:41.499Z,23.85
2022-08-03T05:23:08.169Z,23.97
2022-08-03T05:25:34.828Z,24.13
2022-08-03T05:28:01.471Z,24.28
2022-08-03T05:30:33.685Z,24.37
2022-08-03T05:33:02.530Z,24.46
2022-08-03T05:35:57.834Z,24.59
2022-08-03T05:38:23.884Z,24.61
2022-08-03T05:40:57.535Z,24.74
2022-08-03T05:43:43.296Z,24.56
2022-08-03T05:46:12.854Z,24.75
2022-08-03T05:48:40.600Z,24.76
2022-08-03T05:51:11.543Z,24.62
2022-08-03T05:53:41.856Z,24.82
2022-08-03T05:56:14.731Z,24.96
2022-08-03T05:58:48.605Z,25.30
2022-08-03T06:01:17.278Z,25.74
2022-08-03T06:03:45.289Z,25.99
2022-08-03T06:06:12.212Z,26.96
2022-08-03T06:08:39.786Z,28.65
2022-08-03T06:11:06.625Z,28.87
2022-08-03T06:13:33.294Z,29.85
2022-08-03T06:16:00.112Z,31.90
2022-08-03T06:18:26.724Z,31.71
2022-08-03T06:20:53.631Z,33.37
2022-08-03T06:23:22.372Z,33.96
2022-08-03T06:25:49.209Z,35.36
2022-08-03T06:31:03.664Z,37.92
2022-08-03T06:34:30.651Z,39.51
2022-08-03T06:36:20.065Z,40.83
2022-08-03T06:38:46.823Z,41.74
2022-08-03T06:41:13.496Z,42.16
2022-08-03T06:44:02.998Z,42.43
2022-08-03T06:46:26.739Z,42.55
2022-08-03T06:48:53.498Z,43.84
2022-08-03T06:51:20.124Z,43.83
2022-08-03T06:53:46.676Z,45.05
2022-08-03T06:56:13.466Z,45.08
2022-08-03T06:58:40.153Z,44.12
2022-08-03T07:01:06.804Z,44.42
2022-08-03T07:03:33.494Z,44.41
2022-08-03T07:06:00.454Z,44.39
2022-08-03T07:08:33.161Z,44.40
2022-08-03T07:11:01.127Z,44.08
2022-08-03T07:13:27.802Z,43.43
2022-08-03T07:15:56.432Z,43.43
2022-08-03T07:18:29.665Z,44.05
2022-08-03T07:20:58.144Z,44.94
2022-08-03T07:23:25.702Z,44.69
2022-08-03T07:25:52.704Z,44.69
2022-08-03T07:28:20.014Z,45.44
2022-08-03T07:30:47.384Z,46.61
2022-08-03T07:33:14.127Z,47.19
2022-08-03T07:35:40.848Z,43.05
2022-08-03T07:38:07.507Z,42.43
2022-08-03T07:40:34.777Z,41.60
2022-08-03T07:43:03.293Z,42.03
2022-08-03T07:45:31.379Z,42.80
2022-08-03T07:47:58.006Z,43.51
2022-08-03T07:50:24.709Z,44.45
2022-08-03T07:52:53.108Z,45.66
2022-08-03T07:55:21.881Z,45.15
2022-08-03T07:58:02.003Z,44.59
2022-08-03T08:00:29.123Z,44.30
2022-08-03T08:02:55.789Z,45.43
2022-08-03T08:05:22.392Z,45.24
2022-08-03T08:07:51.253Z,43.94
2022-08-03T08:10:18.854Z,45.78
2022-08-03T08:12:46.060Z,46.16
2022-08-03T08:15:12.891Z,43.97
2022-08-03T08:17:48.214Z,43.39
2022-08-03T08:20:28.291Z,45.68
2022-08-03T08:23:03.604Z,48.14
2022-08-03T08:25:52.237Z,46.88
2022-08-03T08:28:32.599Z,45.98
2022-08-03T08:31:00.701Z,47.13
2022-08-03T08:33:37.418Z,49.49
2022-08-03T08:36:15.569Z,51.70
2022-08-03T08:38:44.694Z,50.81
2022-08-03T08:41:12.766Z,50.77
2022-08-03T08:43:39.544Z,48.88
2022-08-03T08:46:08.444Z,49.50
2022-08-03T08:48:39.481Z,50.06
2022-08-03T08:51:06.942Z,49.56
2022-08-03T08:53:37.298Z,50.09
2022-08-03T08:56:05.611Z,50.13
2022-08-03T08:58:38.781Z,48.33
2022-08-03T09:01:06.224Z,48.68
2022-08-03T09:03:36.062Z,49.83
2022-08-03T09:06:03.251Z,46.90
2022-08-03T09:08:31.535Z,46.19
2022-08-03T09:10:58.542Z,45.23
2022-08-03T09:13:25.763Z,44.26
2022-08-03T09:16:12.530Z,44.76
2022-08-03T09:18:39.872Z,45.14
2022-08-03T09:21:34.393Z,44.88
2022-08-03T09:24:05.364Z,45.68
2022-08-03T09:26:37.640Z,46.04
2022-08-03T09:29:13.133Z,44.62
2022-08-03T09:31:44.214Z,44.58
2022-08-03T09:34:13.381Z,44.25
2022-08-03T09:36:42.047Z,44.43
2022-08-03T09:39:12.788Z,44.14
2022-08-03T09:41:48.423Z,42.78
2022-08-03T09:44:24.267Z,42.46
2022-08-03T09:46:56.682Z,40.51
2022-08-03T09:49:24.555Z,39.92
2022-08-03T09:52:31.977Z,40.96
2022-08-03T09:54:39.433Z,41.09
2022-08-03T09:57:06.147Z,40.69
2022-08-03T09:59:34.132Z,39.08
2022-08-03T10:02:01.939Z,37.74
2022-08-03T10:04:29.002Z,38.51
2022-08-03T10:07:11.447Z,37.28
2022-08-03T10:09:38.407Z,36.90
2022-08-03T10:12:12.522Z,37.52
2022-08-03T10:14:41.934Z,38.15
2022-08-03T10:17:09.823Z,38.18
2022-08-03T10:19:36.735Z,38.71
2022-08-03T10:22:34.312Z,37.76
2022-08-03T10:25:09.786Z,38.48
2022-08-03T10:27:42.254Z,38.55
2022-08-03T10:30:12.073Z,39.02
2022-08-03T10:32:44.764Z,38.92
2022-08-03T10:35:19.763Z,38.98
2022-08-03T10:38:13.013Z,38.01
2022-08-03T10:40:48.484Z,38.32
2022-08-03T10:43:27.522Z,37.16
2022-08-03T10:45:54.421Z,36.76
2022-08-03T10:48:22.199Z,37.27
2022-08-03T10:50:49.903Z,37.38
2022-08-03T10:53:16.641Z,37.06
2022-08-03T10:56:07.323Z,37.12
2022-08-03T10:58:53.350Z,37.52
2022-08-03T11:02:00.164Z,37.92
2022-08-03T11:04:29.787Z,38.15
2022-08-03T11:07:26.314Z,38.04
2022-08-03T11:09:55.062Z,37.78
2022-08-03T11:12:32.995Z,37.33
2022-08-03T11:15:06.280Z,37.12
2022-08-03T11:17:46.646Z,37.14
2022-08-03T11:21:01.464Z,36.63
2022-08-03T11:24:04.889Z,36.60
2022-08-03T11:26:34.058Z,36.86
2022-08-03T11:29:31.756Z,36.69
2022-08-03T11:31:58.698Z,35.53
2022-08-03T11:34:26.262Z,35.05
2022-08-03T11:37:22.711Z,34.88
2022-08-03T11:39:53.029Z,34.97
2022-08-03T11:42:22.859Z,34.76
2022-08-03T11:44:54.987Z,34.86
2022-08-03T11:47:23.168Z,35.24
2022-08-03T11:49:51.585Z,35.75
2022-08-03T11:52:19.536Z,36.06
2022-08-03T11:54:56.626Z,36.21
2022-08-03T11:59:17.091Z,36.52
2022-08-03T12:00:30.456Z,36.71
2022-08-03T12:03:03.604Z,36.43
2022-08-03T12:05:37.303Z,36.31
2022-08-03T12:08:06.674Z,36.29
2022-08-03T12:10:34.546Z,35.92
2022-08-03T12:13:02.709Z,35.09
2022-08-03T12:15:31.429Z,34.28
2022-08-03T12:17:58.399Z,33.60
2022-08-03T12:20:34.873Z,33.45
2022-08-03T12:23:05.218Z,33.65
2022-08-03T12:25:39.558Z,33.83
2022-08-03T12:28:36.581Z,34.01
2022-08-03T12:31:07.547Z,34.12
2022-08-03T12:34:04.211Z,34.32
2022-08-03T12:36:34.168Z,34.71
2022-08-03T12:39:04.385Z,34.88
2022-08-03T12:41:34.116Z,35.15
2022-08-03T12:44:05.377Z,35.14
2022-08-03T12:46:47.387Z,35.05
2022-08-03T12:49:17.399Z,35.00
2022-08-03T12:51:43.979Z,35.05
2022-08-03T12:54:17.492Z,35.10
2022-08-03T12:57:10.826Z,35.25
2022-08-03T12:59:53.089Z,34.98
2022-08-03T13:02:27.740Z,34.77
2022-08-03T13:04:55.162Z,34.87
2022-08-03T13:07:22.668Z,34.70
2022-08-03T13:09:53.029Z,34.65
2022-08-03T13:12:21.825Z,34.53
2022-08-03T13:14:50.957Z,34.51
2022-08-03T13:17:18.231Z,34.20
2022-08-03T13:19:46.385Z,34.24
2022-08-03T13:22:16.058Z,34.22
2022-08-03T13:24:45.071Z,34.53
2022-08-03T13:28:02.335Z,34.82
2022-08-03T13:29:59.548Z,35.08
2022-08-03T13:32:26.227Z,35.27
2022-08-03T13:34:52.906Z,35.23
2022-08-03T13:37:19.602Z,35.21
2022-08-03T13:39:57.577Z,35.16
2022-08-03T13:42:27.827Z,35.16
2022-08-03T13:44:54.416Z,35.21
2022-08-03T13:47:21.326Z,35.27
2022-08-03T13:49:59.389Z,35.46
2022-08-03T13:52:29.571Z,35.56
2022-08-03T13:54:56.206Z,35.76
2022-08-03T13:58:03.732Z,35.86
2022-08-03T14:00:10.279Z,35.95
2022-08-03T14:02:37.198Z,36.01
2022-08-03T14:05:04.274Z,35.76
2022-08-03T14:07:30.880Z,35.56
2022-08-03T14:09:57.510Z,35.38
2022-08-03T14:12:24.079Z,35.31
2022-08-03T14:14:50.660Z,35.33
2022-08-03T14:17:17.394Z,35.44
2022-08-03T14:19:53.026Z,35.57
2022-08-03T14:22:21.525Z,35.65
2022-08-03T14:24:49.445Z,35.65
2022-08-03T14:27:16.568Z,35.53
2022-08-03T14:29:43.390Z,35.34
2022-08-03T14:32:13.119Z,35.07
2022-08-03T14:34:40.902Z,34.86
2022-08-03T14:37:07.642Z,34.72
2022-08-03T14:42:20.958Z,34.38
2022-08-03T14:44:48.059Z,34.20
2022-08-03T14:47:14.965Z,34.02
2022-08-03T14:50:36.207Z,33.83
2022-08-03T14:52:28.911Z,33.69
2022-08-03T14:54:55.493Z,33.55
2022-08-03T14:57:22.339Z,33.43
2022-08-03T14:59:55.741Z,33.36
2022-08-03T15:02:24.915Z,33.23
2022-08-03T15:04:52.117Z,33.16
2022-08-03T15:07:19.189Z,33.05
2022-08-03T15:09:46.249Z,32.98
2022-08-03T15:12:12.834Z,32.87
2022-08-03T15:14:39.403Z,32.83
2022-08-03T15:17:06.466Z,32.75
2022-08-03T15:20:03.917Z,32.61
2022-08-03T15:22:20.764Z,32.48
2022-08-03T15:24:51.937Z,32.37
2022-08-03T15:27:18.812Z,32.30
2022-08-03T15:30:05.334Z,32.18
2022-08-03T15:32:33.664Z,32.14
2022-08-03T15:35:00.896Z,32.08
2022-08-03T15:37:28.454Z,31.98
2022-08-03T15:39:58.865Z,31.91
2022-08-03T15:42:27.186Z,31.89
2022-08-03T15:44:54.473Z,31.86
2022-08-03T15:47:21.631Z,31.76
2022-08-03T15:49:48.428Z,31.71
2022-08-03T15:52:14.997Z,31.71
2022-08-03T15:54:41.734Z,31.77
2022-08-03T15:57:08.329Z,31.62
2022-08-03T15:59:35.062Z,31.58
2022-08-03T16:02:01.866Z,31.52
2022-08-03T16:04:28.733Z,31.44
2022-08-03T16:06:55.324Z,31.40
2022-08-03T16:09:24.231Z,31.31
2022-08-03T16:12:15.704Z,31.25
2022-08-03T16:14:51.835Z,31.13
2022-08-03T16:17:19.695Z,31.02
2022-08-03T16:19:46.569Z,30.93
2022-08-03T16:22:13.407Z,30.90
2022-08-03T16:24:41.352Z,30.93
2022-08-03T16:27:25.048Z,30.77
2022-08-03T16:29:54.992Z,30.93
2022-08-03T16:32:21.633Z,30.98
2022-08-03T16:34:48.381Z,30.98
2022-08-03T16:37:37.551Z,31.01
2022-08-03T16:40:03.571Z,31.13
2022-08-03T16:42:30.162Z,31.00
2022-08-03T16:44:56.808Z,31.11
2022-08-03T16:47:23.532Z,31.17
2022-08-03T16:49:54.994Z,31.09
2022-08-03T16:52:23.787Z,31.10
2022-08-03T16:54:53.175Z,31.15
2022-08-03T16:57:56.265Z,31.05
2022-08-03T17:00:34.058Z,31.09
2022-08-03T17:03:03.904Z,30.98
2022-08-03T17:05:32.660Z,30.93
2022-08-03T17:08:13.598Z,30.96
2022-08-03T17:10:45.149Z,30.97
2022-08-03T17:13:21.769Z,30.90
2022-08-03T17:16:01.438Z,30.80
2022-08-03T17:18:34.196Z,30.79
2022-08-03T17:21:06.436Z,30.77
2022-08-03T17:23:43.584Z,30.74
2022-08-03T17:26:21.605Z,30.68
2022-08-03T17:28:57.369Z,30.64
2022-08-03T17:31:30.817Z,30.56
2022-08-03T17:34:00.783Z,30.45
2022-08-03T17:36:47.713Z,30.40
2022-08-03T17:39:30.843Z,30.34
2022-08-03T17:42:30.295Z,30.27
2022-08-03T17:44:55.417Z,30.14
2022-08-03T17:47:23.466Z,30.10
2022-08-03T17:49:56.929Z,29.94
2022-08-03T17:52:34.471Z,29.83
2022-08-03T17:55:55.778Z,29.63
2022-08-03T17:58:03.084Z,29.56
2022-08-03T18:00:51.724Z,29.39
2022-08-03T18:03:24.820Z,29.23
2022-08-03T18:06:12.201Z,29.03
2022-08-03T18:08:50.421Z,28.86
2022-08-03T18:11:21.818Z,28.78
2022-08-03T18:14:16.091Z,28.76
2022-08-03T18:16:54.900Z,28.39
2022-08-03T18:20:02.407Z,28.20
2022-08-03T18:22:10.114Z,28.01
2022-08-03T18:24:39.350Z,27.95
2022-08-03T18:27:07.217Z,27.85
2022-08-03T18:29:37.086Z,27.73
2022-08-03T18:32:13.324Z,27.70
2022-08-03T18:34:53.840Z,27.60
2022-08-03T18:37:25.451Z,27.51
2022-08-03T18:39:55.798Z,27.48
2022-08-03T18:42:25.867Z,27.37
2022-08-03T18:44:56.553Z,27.35
2022-08-03T18:47:23.484Z,27.32
2022-08-03T18:50:00.788Z,27.25
2022-08-03T18:53:22.996Z,27.25
2022-08-03T18:56:20.867Z,27.10
2022-08-03T18:59:03.205Z,26.99
2022-08-03T19:02:00.794Z,26.88
2022-08-03T19:04:41.073Z,26.84
2022-08-03T19:07:09.539Z,26.78
2022-08-03T19:09:46.880Z,26.72
2022-08-03T19:12:28.111Z,26.59
2022-08-03T19:15:05.542Z,26.66
2022-08-03T19:17:53.293Z,26.65
2022-08-03T19:20:22.997Z,26.60
2022-08-03T19:22:54.006Z,26.55
2022-08-03T19:25:27.952Z,26.48
2022-08-03T19:28:03.157Z,26.22
2022-08-03T19:30:38.919Z,26.34
2022-08-03T19:33:07.324Z,26.29
2022-08-03T19:35:49.802Z,26.16
2022-08-03T19:38:27.466Z,26.15
2022-08-03T19:41:00.887Z,26.11
2022-08-03T19:43:49.507Z,26.07
2022-08-03T19:46:22.131Z,25.97
2022-08-03T19:48:55.239Z,25.95
2022-08-03T19:52:01.960Z,25.97
2022-08-03T19:54:16.244Z,25.94
2022-08-03T19:56:48.951Z,25.92
2022-08-03T19:59:16.150Z,25.91
2022-08-03T20:01:50.218Z,25.94
2022-08-03T20:04:17.845Z,25.96
2022-08-03T20:06:49.662Z,25.93
2022-08-03T20:09:18.081Z,25.95
2022-08-03T20:11:45.300Z,25.93
2022-08-03T20:14:20.531Z,25.95
2022-08-03T20:16:49.001Z,25.91
2022-08-03T20:19:16.626Z,25.88
2022-08-03T20:21:48.107Z,25.75
2022-08-03T20:24:36.725Z,25.90
2022-08-03T20:27:08.123Z,25.82
2022-08-03T20:30:05.445Z,25.81
2022-08-03T20:32:25.316Z,25.76
2022-08-03T20:34:52.874Z,25.74
2022-08-03T20:37:20.014Z,25.77
2022-08-03T20:39:49.356Z,25.74
2022-08-03T20:42:21.491Z,25.79
2022-08-03T20:45:06.196Z,25.77
2022-08-03T20:47:41.641Z,25.75
2022-08-03T20:50:17.904Z,25.71
2022-08-03T20:52:49.574Z,25.67
2022-08-03T20:55:47.075Z,25.64
2022-08-03T20:58:05.517Z,25.68
2022-08-03T21:00:32.303Z,25.63
2022-08-03T21:02:58.951Z,25.61
2022-08-03T21:05:31.138Z,25.60
2022-08-03T21:08:15.862Z,25.56
2022-08-03T21:10:45.539Z,25.56
2022-08-03T21:13:24.941Z,25.53
2022-08-03T21:16:06.141Z,25.51
2022-08-03T21:18:53.878Z,25.45
2022-08-03T21:21:23.219Z,25.42
2022-08-03T21:23:53.278Z,25.37
2022-08-03T21:26:24.730Z,25.25
2022-08-03T21:28:53.636Z,25.25
2022-08-03T21:31:25.189Z,25.17
2022-08-03T21:34:05.316Z,25.07
2022-08-03T21:36:34.200Z,25.02
2022-08-03T21:39:02.732Z,24.94
2022-08-03T21:41:31.562Z,24.90
2022-08-03T21:43:58.990Z,24.88
2022-08-03T21:46:27.518Z,24.84
2022-08-03T21:49:52.021Z,24.86
2022-08-03T21:51:49.464Z,24.83
2022-08-03T21:54:17.648Z,24.86
2022-08-03T21:56:48.420Z,24.87
2022-08-03T21:59:19.730Z,24.83
2022-08-03T22:01:47.993Z,24.87
2022-08-03T22:04:53.273Z,24.77
2022-08-03T22:07:07.922Z,24.73
2022-08-03T22:09:35.770Z,24.64
2022-08-03T22:12:02.446Z,24.66
2022-08-03T22:14:32.185Z,24.71
2022-08-03T22:17:00.145Z,24.69
2022-08-03T22:19:26.717Z,24.78
2022-08-03T22:21:54.847Z,24.80
2022-08-03T22:24:24.170Z,24.64
2022-08-03T22:27:09.913Z,24.82
2022-08-03T22:29:36.802Z,24.80
2022-08-03T22:32:04.126Z,24.76
2022-08-03T22:34:31.076Z,24.78
2022-08-03T22:37:02.577Z,24.84
2022-08-03T22:39:30.222Z,24.84
2022-08-03T22:42:00.808Z,24.84
2022-08-03T22:44:28.131Z,24.84
2022-08-03T22:46:55.650Z,24.84
2022-08-03T22:49:22.955Z,24.84
2022-08-03T22:51:52.253Z,24.84
2022-08-03T22:54:19.535Z,24.77
2022-08-03T22:56:47.088Z,24.69
2022-08-03T22:59:40.283Z,24.61
2022-08-03T23:02:20.183Z,24.57
2022-08-03T23:04:52.113Z,24.57
2022-08-03T23:07:30.218Z,24.49
2022-08-03T23:09:58.006Z,24.44
2022-08-03T23:12:25.390Z,24.43
2022-08-03T23:14:55.219Z,24.37
2022-08-03T23:17:26.923Z,24.35
2022-08-03T23:19:53.871Z,24.40
2022-08-03T23:22:30.179Z,24.24
2022-08-03T23:24:59.383Z,24.22
2022-08-03T23:27:27.890Z,24.16
2022-08-03T23:29:58.405Z,24.11
2022-08-03T23:32:30.908Z,24.17
2022-08-03T23:35:20.241Z,24.16
2022-08-03T23:38:04.022Z,24.11
2022-08-03T23:40:36.951Z,24.06
2022-08-03T23:43:04.512Z,24.11
2022-08-03T23:45:35.641Z,24.17
2022-08-03T23:48:02.240Z,24.25
2022-08-03T23:50:40.366Z,24.28
2022-08-03T23:53:49.266Z,24.31
2022-08-03T23:56:42.247Z,24.37
2022-08-03T23:59:11.523Z,24.42
